Time;durP1;ratioP1;P1;durP2;ratioP2;P2;SDS_P1;SDS_P2;PMS_P1;PMS_P2;Temp;Humidity;BMP_temperature;BMP_pressure;BME280_temperature;BME280_humidity;BME280_pressure;Samples;Min_cycle;Max_cycle;Signal;HPM_P1;HPM_P2
2021/01/06 00:00:36;;;;;;;78.40;28.10;;;;;;;-0.25;96.13;99567.63;3470414;28;20049;-48
2021/01/06 00:02:18;;;;;;;77.80;25.73;;;;;;;-0.26;96.27;99570.09;3467986;28;20053;-48
2021/01/06 00:04:00;;;;;;;70.95;25.20;;;;;;;-0.26;95.92;99567.53;3468906;28;20167;-48
2021/01/06 00:05:42;;;;;;;80.85;27.70;;;;;;;-0.26;96.19;99568.41;3468266;28;20049;-47
2021/01/06 00:07:24;;;;;;;71.70;24.35;;;;;;;-0.26;96.25;99563.31;3467884;28;20046;-48
2021/01/06 00:09:07;;;;;;;67.80;26.45;;;;;;;-0.24;96.15;99559.16;3470475;28;20458;-48
2021/01/06 00:10:51;;;;;;;76.20;26.33;;;;;;;-0.29;96.41;99555.47;3468680;28;20042;-47
2021/01/06 00:12:33;;;;;;;74.13;27.58;;;;;;;-0.22;96.29;99572.00;3468509;28;20050;-47
2021/01/06 00:14:16;;;;;;;77.95;26.10;;;;;;;-0.23;96.44;99566.03;3456542;28;20428;-47
2021/01/06 00:15:57;;;;;;;81.05;25.48;;;;;;;-0.25;96.29;99565.06;3464926;28;20414;-49
2021/01/06 00:17:39;;;;;;;66.05;24.02;;;;;;;-0.23;96.36;99570.25;3468605;28;20060;-47
2021/01/06 00:19:22;;;;;;;72.15;25.30;;;;;;;-0.23;96.33;99567.72;3470173;28;20391;-47
2021/01/06 00:21:03;;;;;;;74.22;25.15;;;;;;;-0.22;96.06;99564.34;3467806;28;20049;-47
2021/01/06 00:22:45;;;;;;;67.93;25.25;;;;;;;-0.24;96.12;99566.81;3470010;28;20045;-47
2021/01/06 00:24:27;;;;;;;65.28;23.30;;;;;;;-0.22;96.00;99569.44;3467677;28;20131;-48
2021/01/06 00:26:08;;;;;;;64.90;23.00;;;;;;;-0.23;96.04;99560.94;3465767;28;20549;-47
2021/01/06 00:27:53;;;;;;;67.03;23.10;;;;;;;-0.22;96.33;99565.25;3456381;28;20529;-47
2021/01/06 00:29:35;;;;;;;68.57;24.40;;;;;;;-0.21;96.21;99559.34;3468293;28;20045;-47
2021/01/06 00:31:17;;;;;;;58.67;22.15;;;;;;;-0.21;96.32;99559.34;3467644;28;20457;-46
2021/01/06 00:32:59;;;;;;;63.47;22.02;;;;;;;-0.22;96.13;99560.16;3470033;28;20140;-47
2021/01/06 00:34:41;;;;;;;64.75;23.95;;;;;;;-0.19;96.26;99561.97;3467957;28;20060;-48
2021/01/06 00:36:23;;;;;;;62.28;22.92;;;;;;;-0.19;96.31;99555.19;3468572;28;20095;-47
2021/01/06 00:38:05;;;;;;;59.53;22.67;;;;;;;-0.19;95.99;99557.75;3469708;28;20057;-48
2021/01/06 00:39:47;;;;;;;61.97;22.33;;;;;;;-0.19;96.18;99552.66;3468007;28;20045;-48
2021/01/06 00:41:30;;;;;;;57.38;21.23;;;;;;;-0.18;95.93;99566.28;3469027;28;20084;-47
2021/01/06 00:43:14;;;;;;;66.93;22.80;;;;;;;-0.18;96.29;99553.53;3467878;28;20049;-47
2021/01/06 00:44:56;;;;;;;55.15;21.02;;;;;;;-0.18;96.14;99553.53;3467710;28;20049;-48
2021/01/06 00:46:37;;;;;;;57.00;21.15;;;;;;;-0.19;96.06;99549.22;3469501;28;20473;-47
2021/01/06 00:48:20;;;;;;;58.83;23.75;;;;;;;-0.20;95.68;99542.34;3468029;28;20053;-48
2021/01/06 00:50:01;;;;;;;69.68;23.05;;;;;;;-0.19;95.80;99550.09;3468106;28;20514;-48
2021/01/06 00:51:46;;;;;;;63.00;24.25;;;;;;;-0.19;95.82;99550.09;3469508;28;20195;-48
2021/01/06 00:53:28;;;;;;;68.05;23.98;;;;;;;-0.18;96.11;99548.44;3467395;28;20067;-47
2021/01/06 00:55:10;;;;;;;61.08;22.88;;;;;;;-0.18;96.13;99546.75;3469758;28;20057;-48
2021/01/06 00:56:52;;;;;;;66.97;24.95;;;;;;;-0.17;95.96;99552.72;3469334;28;20045;-48
2021/01/06 00:58:33;;;;;;;66.25;24.05;;;;;;;-0.18;95.98;99554.41;3467507;28;20058;-46
2021/01/06 01:00:19;;;;;;;60.88;23.80;;;;;;;-0.18;96.06;99554.41;3469326;28;20060;-47
2021/01/06 01:02:00;;;;;;;58.53;20.92;;;;;;;-0.16;95.92;99551.94;3468070;28;20088;-46
2021/01/06 01:03:44;;;;;;;62.97;23.42;;;;;;;-0.16;96.02;99557.06;3467390;28;20049;-47
2021/01/06 01:05:28;;;;;;;63.78;23.92;;;;;;;-0.16;96.11;99554.50;3469594;28;20146;-48
2021/01/06 01:07:10;;;;;;;;;;;;;;;-0.17;95.89;99550.19;3467429;28;20057;-48
2021/01/06 01:08:52;;;;;;;58.88;20.10;;;;;;;-0.18;95.62;99546.75;3467183;28;19926;-48
2021/01/06 01:10:36;;;;;;;54.28;21.20;;;;;;;-0.18;95.67;99544.22;3455938;28;20052;-48
2021/01/06 01:12:18;;;;;;;58.17;22.63;;;;;;;-0.17;95.71;99548.50;3464513;28;20100;-47
2021/01/06 01:13:59;;;;;;;56.58;22.27;;;;;;;-0.17;95.62;99545.09;3467725;28;20064;-49
2021/01/06 01:15:42;;;;;;;62.83;23.42;;;;;;;-0.17;96.05;99540.00;3468043;28;20099;-49
2021/01/06 01:17:23;;;;;;;70.75;24.38;;;;;;;-0.16;95.64;99544.31;3467487;28;20140;-47
2021/01/06 01:19:05;;;;;;;51.30;20.77;;;;;;;-0.16;96.02;99534.09;3469699;28;20061;-47
2021/01/06 01:20:49;;;;;;;65.78;22.73;;;;;;;-0.15;95.72;99538.38;3466568;28;20439;-48
2021/01/06 01:22:31;;;;;;;62.15;24.25;;;;;;;-0.17;95.69;99523.00;3466974;28;20049;-48
2021/01/06 01:24:12;;;;;;;59.05;22.48;;;;;;;-0.16;96.11;99526.47;3469141;28;20465;-47
2021/01/06 01:25:56;;;;;;;68.75;24.90;;;;;;;-0.17;95.81;99525.56;3467169;28;20060;-48
2021/01/06 01:27:40;;;;;;;62.90;25.02;;;;;;;-0.17;95.60;99519.59;3467667;28;20195;-47
2021/01/06 01:29:21;;;;;;;61.95;23.80;;;;;;;-0.18;95.72;99526.38;3469600;28;20100;-48
2021/01/06 01:31:03;;;;;;;70.75;26.45;;;;;;;-0.18;95.65;99533.16;3467115;28;20506;-47
2021/01/06 01:32:45;;;;;;;69.60;25.02;;;;;;;-0.20;96.02;99530.50;3469163;28;20466;-46
2021/01/06 01:34:27;;;;;;;76.47;25.20;;;;;;;-0.21;95.90;99528.75;3468066;28;20053;-47
2021/01/06 01:36:09;;;;;;;68.93;24.88;;;;;;;-0.19;96.02;99533.94;3466455;28;20045;-46
2021/01/06 01:37:51;;;;;;;72.22;25.55;;;;;;;-0.20;95.93;99530.50;3469787;28;20573;-47
2021/01/06 01:39:32;;;;;;;62.00;24.38;;;;;;;-0.21;96.06;99525.34;3467879;28;20102;-47
2021/01/06 01:41:20;;;;;;;72.82;25.90;;;;;;;-0.20;96.06;99525.41;3467433;28;20050;-46
2021/01/06 01:43:05;;;;;;;79.43;26.70;;;;;;;-0.20;95.96;99520.31;3467872;28;20045;-46
2021/01/06 01:44:58;;;;;;;75.95;27.58;;;;;;;-0.21;95.81;99515.13;3467044;28;20153;-48
2021/01/06 01:46:56;;;;;;;83.13;28.00;;;;;;;-0.22;96.09;99516.81;3466904;28;20104;-47
2021/01/06 01:48:43;;;;;;;90.93;28.10;;;;;;;-0.21;96.20;99512.59;3457297;28;20050;-47
2021/01/06 01:50:25;;;;;;;88.68;28.15;;;;;;;-0.22;96.21;99510.81;3466355;28;20509;-49
2021/01/06 01:52:26;;;;;;;80.30;28.13;;;;;;;-0.24;95.89;99504.75;3467031;28;20427;-47
2021/01/06 01:54:09;;;;;;;83.10;28.27;;;;;;;-0.25;96.01;99509.00;3469203;28;20045;-48
2021/01/06 01:55:52;;;;;;;86.22;28.05;;;;;;;-0.25;96.01;99511.53;3467609;28;20528;-47
2021/01/06 01:57:41;;;;;;;80.60;28.48;;;;;;;-0.26;96.10;99501.25;3466727;28;20510;-48
2021/01/06 01:59:29;;;;;;;73.90;27.73;;;;;;;-0.26;96.07;99504.69;3469524;28;20053;-47
2021/01/06 02:01:11;;;;;;;82.22;27.80;;;;;;;-0.25;96.20;99501.34;3466962;28;20519;-48
2021/01/06 02:03:05;;;;;;;89.70;29.23;;;;;;;-0.24;96.09;99502.22;3467012;28;20046;-47
2021/01/06 02:04:53;;;;;;;87.00;27.58;;;;;;;-0.25;96.20;99503.91;3457190;28;20045;-47
2021/01/06 02:06:39;;;;;;;86.78;30.10;;;;;;;-0.24;96.14;99505.63;3467478;28;20056;-47
2021/01/06 02:08:25;;;;;;;81.20;28.92;;;;;;;-0.24;96.43;99503.09;3466504;28;20104;-46
2021/01/06 02:10:12;;;;;;;88.63;28.67;;;;;;;-0.24;96.10;99509.88;3469044;28;20056;-47
2021/01/06 02:12:01;;;;;;;86.07;29.30;;;;;;;-0.24;96.43;99504.75;3467202;28;20049;-47
2021/01/06 02:13:50;;;;;;;90.82;28.80;;;;;;;-0.23;96.16;99506.53;3466937;28;20533;-46
2021/01/06 02:15:40;;;;;;;76.47;27.25;;;;;;;-0.23;96.16;99509.94;3468729;28;20045;-47
2021/01/06 02:17:22;;;;;;;75.30;28.88;;;;;;;-0.21;96.27;99510.03;3467571;28;20095;-47
2021/01/06 02:19:04;;;;;;;96.55;30.98;;;;;;;-0.19;96.27;99498.25;3466549;28;20446;-48
2021/01/06 02:21:07;;;;;;;68.47;25.70;;;;;;;-0.21;96.22;99500.72;3468932;28;20061;-47
2021/01/06 02:22:50;;;;;;;87.68;29.17;;;;;;;-0.20;96.53;99496.47;3467795;28;20057;-47
2021/01/06 02:24:33;;;;;;;88.40;29.90;;;;;;;-0.20;96.25;99499.03;3466864;28;20503;-47
2021/01/06 02:26:15;;;;;;;82.45;29.45;;;;;;;-0.20;96.26;99504.13;3468712;28;20066;-48
2021/01/06 02:27:59;;;;;;;75.35;27.17;;;;;;;-0.20;96.29;99505.03;3467884;28;20256;-48
2021/01/06 02:29:41;;;;;;;88.32;30.58;;;;;;;-0.20;96.60;99497.38;3466934;28;20533;-48
2021/01/06 02:31:23;;;;;;;84.18;28.55;;;;;;;-0.19;96.43;99500.78;3468604;28;20495;-48
2021/01/06 02:33:05;;;;;;;84.03;27.80;;;;;;;-0.20;96.21;99501.56;3466952;28;20053;-47
2021/01/06 02:34:47;;;;;;;69.18;26.15;;;;;;;-0.19;96.38;99493.16;3466749;28;20049;-47
2021/01/06 02:36:29;;;;;;;75.90;26.55;;;;;;;-0.20;96.41;99496.47;3469018;28;20510;-46
2021/01/06 02:38:11;;;;;;;80.35;27.40;;;;;;;-0.21;96.37;99503.25;3466703;28;20149;-47
2021/01/06 02:39:53;;;;;;;84.20;28.70;;;;;;;-0.22;96.23;99498.97;3466802;28;20061;-47
2021/01/06 02:41:36;;;;;;;84.30;28.77;;;;;;;-0.21;96.32;99502.38;3468463;28;20053;-47
2021/01/06 02:43:18;;;;;;;86.25;27.75;;;;;;;-0.22;96.31;99498.06;3465007;28;20053;-47
2021/01/06 02:44:59;;;;;;;76.88;26.98;;;;;;;-0.22;96.12;99500.63;3468742;28;20052;-47
2021/01/06 02:46:42;;;;;;;82.93;28.00;;;;;;;-0.21;96.49;99498.16;3466852;28;20462;-47
2021/01/06 02:48:24;;;;;;;76.82;27.38;;;;;;;-0.21;96.49;99497.28;3467947;28;20046;-47
2021/01/06 02:50:11;;;;;;;78.32;28.20;;;;;;;-0.22;96.37;99493.88;3470801;28;20053;-47
2021/01/06 02:51:58;;;;;;;78.30;26.35;;;;;;;-0.22;96.29;99491.31;3469251;28;20064;-48
2021/01/06 02:53:46;;;;;;;83.00;25.90;;;;;;;-0.22;96.12;99498.06;3468577;28;20081;-46
2021/01/06 02:55:31;;;;;;;75.55;27.42;;;;;;;-0.22;96.48;99500.63;3471383;28;20053;-47
2021/01/06 02:57:14;;;;;;;72.25;25.00;;;;;;;-0.23;96.31;99497.22;3470013;28;20140;-46
2021/01/06 02:58:58;;;;;;;86.90;29.58;;;;;;;-0.22;96.31;99492.97;3468742;28;20072;-46
2021/01/06 03:00:39;;;;;;;80.22;28.08;;;;;;;-0.22;96.15;99498.06;3470934;28;20053;-47
2021/01/06 03:02:24;;;;;;;73.60;26.30;;;;;;;-0.24;96.27;99500.53;3468753;28;20056;-47
2021/01/06 03:04:08;;;;;;;67.55;26.70;;;;;;;-0.22;96.20;99503.16;3469296;28;20061;-48
2021/01/06 03:06:06;;;;;;;73.78;25.98;;;;;;;-0.22;96.49;99506.63;3470495;28;20061;-47
2021/01/06 03:07:48;;;;;;;73.68;25.90;;;;;;;-0.21;96.50;99507.50;3469366;28;20057;-47
2021/01/06 03:09:34;;;;;;;66.28;25.85;;;;;;;-0.21;96.41;99493.06;3468856;28;20481;-48
2021/01/06 03:11:15;;;;;;;75.20;25.85;;;;;;;-0.21;96.39;99489.66;3471043;28;20510;-48
2021/01/06 03:12:58;;;;;;;77.10;26.77;;;;;;;-0.21;96.34;99487.97;3468849;28;20058;-47
2021/01/06 03:14:40;;;;;;;72.85;25.73;;;;;;;-0.22;96.26;99487.88;3469698;28;20065;-47
2021/01/06 03:16:22;;;;;;;68.00;26.73;;;;;;;-0.21;96.53;99495.59;3471248;28;20049;-47
2021/01/06 03:18:04;;;;;;;74.72;28.02;;;;;;;-0.21;96.49;99492.19;3469109;28;20052;-48
2021/01/06 03:19:50;;;;;;;69.18;25.23;;;;;;;-0.21;96.42;99487.09;3470974;28;20103;-47
2021/01/06 03:21:33;;;;;;;84.72;27.58;;;;;;;-0.20;96.08;99486.28;3468305;28;20065;-47
2021/01/06 03:23:25;;;;;;;72.88;27.00;;;;;;;-0.20;96.23;99481.19;3468573;28;20045;-47
2021/01/06 03:25:10;;;;;;;84.00;28.13;;;;;;;-0.21;96.21;99482.88;3470040;28;20410;-48
2021/01/06 03:26:55;;;;;;;83.63;27.15;;;;;;;-0.21;96.01;99480.31;3470116;28;20056;-47
2021/01/06 03:28:37;;;;;;;76.45;25.38;;;;;;;-0.20;96.13;99494.81;3468733;28;20053;-47
2021/01/06 03:30:24;;;;;;;79.78;28.38;;;;;;;-0.20;96.55;99502.47;3470984;28;20063;-47
2021/01/06 03:32:11;;;;;;;80.85;28.10;;;;;;;-0.20;96.16;99493.94;3468743;28;20046;-47
2021/01/06 03:33:58;;;;;;;83.57;28.17;;;;;;;-0.20;96.42;99493.94;3468528;28;20081;-48
2021/01/06 03:35:43;;;;;;;89.70;27.30;;;;;;;-0.20;96.15;99484.63;3470271;28;20060;-47
2021/01/06 03:37:32;;;;;;;88.57;28.83;;;;;;;-0.20;96.07;99488.81;3468892;28;20049;-47
2021/01/06 03:39:20;;;;;;;90.50;28.35;;;;;;;-0.20;96.13;99492.28;3468785;28;20072;-48
2021/01/06 03:41:05;;;;;;;80.68;28.58;;;;;;;-0.21;96.23;99495.59;3470261;28;20054;-48
2021/01/06 03:42:46;;;;;;;86.15;28.50;;;;;;;-0.20;96.32;99499.94;3467068;28;20053;-47
2021/01/06 03:44:30;;;;;;;72.68;26.95;;;;;;;-0.20;96.30;99486.28;3469382;28;20049;-48
2021/01/06 03:46:19;;;;;;;87.82;29.85;;;;;;;-0.19;96.08;99490.59;3470603;28;20448;-47
2021/01/06 03:48:05;;;;;;;82.80;28.10;;;;;;;-0.20;96.39;99483.72;3468274;28;20050;-47
2021/01/06 03:50:00;;;;;;;91.00;30.58;;;;;;;-0.21;96.48;99493.06;3468586;28;20510;-46
2021/01/06 03:51:54;;;;;;;79.88;26.45;;;;;;;-0.19;96.25;99498.25;3458064;28;20060;-47
2021/01/06 03:53:38;;;;;;;85.07;29.65;;;;;;;-0.20;96.38;99489.72;3468296;28;20418;-48
2021/01/06 03:55:30;;;;;;;86.38;29.30;;;;;;;-0.19;96.11;99485.50;3468183;28;20064;-47
2021/01/06 03:57:14;;;;;;;90.72;30.25;;;;;;;-0.19;96.23;99485.50;3470453;28;20049;-47
2021/01/06 03:59:01;;;;;;;88.93;29.85;;;;;;;-0.20;96.20;99486.28;3467401;28;20518;-47
2021/01/06 04:00:49;;;;;;;90.78;30.55;;;;;;;-0.21;96.32;99484.53;3468251;28;20049;-48
2021/01/06 04:02:40;;;;;;;81.28;28.25;;;;;;;-0.22;96.28;99491.31;3471248;28;20045;-47
2021/01/06 04:04:27;;;;;;;78.68;27.63;;;;;;;-0.22;96.36;99492.97;3467773;28;20469;-47
2021/01/06 04:06:11;;;;;;;85.10;28.15;;;;;;;-0.21;96.19;99482.88;3468610;28;20056;-47
2021/01/06 04:07:54;;;;;;;87.72;29.90;;;;;;;-0.20;96.07;99488.81;3471100;28;20045;-48
2021/01/06 04:09:38;;;;;;;;;;;;;;;-0.20;96.12;99488.81;3469137;28;20056;-47
2021/01/06 04:11:25;;;;;;;84.18;29.48;;;;;;;-0.21;96.26;99493.06;3468447;28;19932;-47
2021/01/06 04:13:07;;;;;;;92.45;29.67;;;;;;;-0.21;96.39;99500.72;3470880;28;20053;-47
2021/01/06 04:14:49;;;;;;;83.50;30.52;;;;;;;-0.20;96.38;99502.47;3467993;28;20084;-47
2021/01/06 04:16:30;;;;;;;87.10;29.45;;;;;;;-0.19;96.29;99498.25;3468187;28;20045;-47
2021/01/06 04:18:12;;;;;;;87.18;30.52;;;;;;;-0.18;96.04;99505.13;3469973;28;20085;-48
2021/01/06 04:19:56;;;;;;;92.47;30.65;;;;;;;-0.19;96.26;99501.66;3468191;28;20065;-47
2021/01/06 04:21:37;;;;;;;89.90;30.35;;;;;;;-0.18;96.31;99505.13;3469131;28;20050;-47
2021/01/06 04:23:19;;;;;;;93.55;31.13;;;;;;;-0.18;96.31;99512.75;3469074;28;20191;-47
2021/01/06 04:25:00;;;;;;;87.85;27.98;;;;;;;-0.17;96.09;99514.50;3467956;28;20045;-47
2021/01/06 04:26:43;;;;;;;84.43;27.25;;;;;;;-0.17;96.18;99514.50;3470624;28;20057;-47
2021/01/06 04:28:26;;;;;;;83.32;30.17;;;;;;;-0.15;96.30;99521.44;3467944;28;20063;-47
2021/01/06 04:30:11;;;;;;;82.47;29.48;;;;;;;-0.17;96.40;99515.38;3467693;28;20057;-46
2021/01/06 04:31:52;;;;;;;79.40;28.25;;;;;;;-0.17;96.01;99514.50;3469880;28;20454;-47
2021/01/06 04:33:36;;;;;;;74.60;27.15;;;;;;;-0.17;96.18;99523.00;3467686;28;20565;-47
2021/01/06 04:35:23;;;;;;;71.57;26.63;;;;;;;-0.18;96.06;99516.19;3468039;28;20056;-47
2021/01/06 04:37:04;;;;;;;81.40;27.98;;;;;;;-0.16;96.10;99521.34;3470081;28;20422;-47
2021/01/06 04:38:52;;;;;;;82.53;27.75;;;;;;;-0.15;96.40;99520.53;3467586;28;20049;-47
2021/01/06 04:40:38;;;;;;;82.28;28.60;;;;;;;-0.16;96.29;99521.34;3468027;28;20085;-47
2021/01/06 04:42:21;;;;;;;74.78;27.38;;;;;;;-0.15;95.99;99525.66;3467800;28;20068;-47
2021/01/06 04:44:18;;;;;;;74.28;27.13;;;;;;;-0.15;96.03;99529.09;3468640;28;20115;-48
2021/01/06 04:46:20;;;;;;;76.25;26.85;;;;;;;-0.15;96.29;99523.09;3468579;28;20307;-48
2021/01/06 04:48:18;;;;;;;67.65;25.25;;;;;;;-0.12;96.03;99528.38;3470103;28;20056;-47
2021/01/06 04:50:27;;;;;;;74.90;26.05;;;;;;;-0.12;96.01;99518.16;3466438;28;20045;-47
2021/01/06 04:52:29;;;;;;;78.55;25.52;;;;;;;-0.12;95.97;99520.72;3446236;28;20045;-47
2021/01/06 04:54:36;;;;;;;74.90;27.52;;;;;;;-0.12;96.21;99523.25;3467504;28;20049;-47
2021/01/06 04:56:39;;;;;;;75.18;25.20;;;;;;;-0.11;95.95;99526.69;3456003;28;20053;-47
2021/01/06 04:58:30;;;;;;;61.42;24.17;;;;;;;-0.10;96.21;99528.44;3468355;28;20060;-47
2021/01/06 05:00:31;;;;;;;71.63;26.83;;;;;;;-0.10;96.34;99524.22;3467316;28;20054;-48
2021/01/06 05:02:25;;;;;;;75.90;25.52;;;;;;;-0.09;96.14;99528.53;3467882;28;20072;-47
2021/01/06 05:04:27;;;;;;;81.88;27.27;;;;;;;-0.11;96.07;99527.59;3456076;28;20073;-47
2021/01/06 05:06:23;;;;;;;71.28;24.40;;;;;;;-0.10;96.22;99534.41;3466814;28;20088;-47
2021/01/06 05:08:15;;;;;;;67.72;23.50;;;;;;;-0.09;96.31;99537.88;3467894;28;20048;-48
2021/01/06 05:10:01;;;;;;;93.28;29.33;;;;;;;-0.09;96.07;99536.19;3468989;28;20076;-46
2021/01/06 05:11:54;;;;;;;80.88;27.67;;;;;;;-0.08;96.04;99534.50;3467163;28;20465;-46
2021/01/06 05:13:42;;;;;;;80.50;27.27;;;;;;;-0.09;96.02;99537.88;3467764;28;20507;-47
2021/01/06 05:15:39;;;;;;;88.82;28.45;;;;;;;-0.08;96.01;99539.59;3468578;28;20548;-47
2021/01/06 05:17:21;;;;;;;79.28;26.98;;;;;;;-0.07;96.02;99536.28;3468910;28;20499;-47
2021/01/06 05:19:03;;;;;;;82.82;29.65;;;;;;;-0.07;96.01;99539.69;3467514;28;20045;-48
2021/01/06 05:20:44;;;;;;;87.20;29.08;;;;;;;-0.09;96.10;99531.09;3469553;28;20049;-48
2021/01/06 05:22:26;;;;;;;76.47;28.77;;;;;;;-0.09;96.12;99535.31;3467391;28;20045;-48
2021/01/06 05:24:20;;;;;;;79.65;28.40;;;;;;;-0.16;95.88;99522.22;3467232;28;20054;-48
2021/01/06 05:26:03;;;;;;;81.65;27.88;;;;;;;-0.09;95.98;99530.22;3469618;28;20045;-47
2021/01/06 05:27:46;;;;;;;77.50;27.53;;;;;;;-0.09;96.17;99530.22;3468518;28;20046;-46
2021/01/06 05:29:29;;;;;;;74.43;25.95;;;;;;;-0.08;95.81;99534.50;3467316;28;20307;-47
2021/01/06 05:31:10;;;;;;;92.00;30.15;;;;;;;-0.09;96.09;99533.63;3469030;28;20049;-47
2021/01/06 05:32:56;;;;;;;90.57;30.70;;;;;;;-0.09;96.13;99536.19;3466961;28;20058;-47
2021/01/06 05:34:37;;;;;;;100.68;33.15;;;;;;;-0.08;96.30;99537.06;3467514;28;20045;-47
2021/01/06 05:36:22;;;;;;;83.05;28.85;;;;;;;-0.10;96.37;99542.06;3468746;28;20049;-47
2021/01/06 05:38:04;;;;;;;82.93;29.98;;;;;;;-0.09;96.28;99538.75;3467038;28;20564;-47
2021/01/06 05:39:45;;;;;;;98.32;31.48;;;;;;;-0.09;96.17;99542.97;3469408;28;20057;-48
2021/01/06 05:41:27;;;;;;;85.53;29.00;;;;;;;-0.10;96.05;99547.16;3467065;28;20049;-47
2021/01/06 05:43:22;;;;;;;91.15;29.02;;;;;;;-0.09;96.00;99538.75;3465699;28;20053;-46
2021/01/06 05:45:07;;;;;;;83.60;29.38;;;;;;;-0.12;96.20;99548.75;3469152;28;20050;-46
2021/01/06 05:46:49;;;;;;;85.07;29.00;;;;;;;-0.09;96.11;99548.06;3467435;28;20418;-47
2021/01/06 05:48:34;;;;;;;86.38;29.08;;;;;;;-0.08;96.33;99550.66;3466979;28;20054;-46
2021/01/06 05:50:20;;;;;;;90.95;30.38;;;;;;;-0.08;96.15;99543.03;3468532;28;20057;-47
2021/01/06 05:52:08;;;;;;;88.68;27.80;;;;;;;-0.07;96.40;99534.59;3467133;28;20053;-47
2021/01/06 05:53:56;;;;;;;88.82;29.65;;;;;;;-0.07;96.20;99534.59;3466671;28;20426;-46
2021/01/06 05:55:44;;;;;;;96.88;31.65;;;;;;;-0.05;96.18;99538.09;3468802;28;20521;-46
2021/01/06 05:57:42;;;;;;;85.25;28.30;;;;;;;-0.05;96.26;99532.13;3466504;28;20072;-46
2021/01/06 05:59:40;;;;;;;81.68;28.10;;;;;;;-0.04;96.44;99537.31;3467209;28;20049;-47
2021/01/06 06:01:36;;;;;;;98.13;30.80;;;;;;;-0.04;96.19;99534.75;3468279;28;20087;-46
2021/01/06 06:03:43;;;;;;;87.65;30.02;;;;;;;-0.04;96.12;99528.75;3467948;28;20050;-48
2021/01/06 06:05:40;;;;;;;97.32;29.92;;;;;;;-0.04;96.09;99538.97;3466411;28;20049;-46
2021/01/06 06:07:30;;;;;;;98.75;31.20;;;;;;;-0.05;96.20;99540.66;3466926;28;20053;-48
2021/01/06 06:09:17;;;;;;;85.75;28.55;;;;;;;-0.04;96.18;99544.97;3469004;28;20091;-47
2021/01/06 06:11:26;;;;;;;89.60;28.38;;;;;;;-0.05;96.51;99550.84;3466807;28;20053;-47
2021/01/06 06:13:33;;;;;;;91.10;27.10;;;;;;;-0.04;96.18;99544.97;3466831;28;20049;-47
2021/01/06 06:15:44;;;;;;;98.07;27.75;;;;;;;-0.08;96.43;99529.41;3466733;28;20576;-47
2021/01/06 06:17:36;;;;;;;91.85;28.85;;;;;;;-0.03;96.19;99549.25;3450412;28;20053;-49
2021/01/06 06:19:57;;;;;;;105.93;29.90;;;;;;;-0.03;96.56;99548.38;3466535;28;20502;-48
2021/01/06 06:21:48;;;;;;;86.22;28.00;;;;;;;-0.03;96.44;99553.47;3466621;28;20085;-47
2021/01/06 06:23:47;;;;;;;87.35;27.25;;;;;;;-0.02;96.35;99556.13;3466629;28;20524;-48
2021/01/06 06:25:31;;;;;;;89.55;29.30;;;;;;;-0.02;96.27;99558.66;3469179;28;20491;-47
2021/01/06 06:27:36;;;;;;;;;;;;;;;-0.02;96.36;99545.91;3467026;28;20431;-46
2021/01/06 06:29:22;;;;;;;91.53;26.50;;;;;;;-0.00;96.52;99558.75;3456130;28;20405;-47
2021/01/06 06:31:20;;;;;;;95.78;29.35;;;;;;;-0.00;96.51;99551.09;3467849;28;20053;-47
2021/01/06 06:33:25;;;;;;;108.63;30.60;;;;;;;-0.00;96.28;99551.09;3468236;28;20052;-46
2021/01/06 06:35:18;;;;;;;96.85;31.17;;;;;;;-0.00;96.33;99558.75;3466420;28;20524;-48
2021/01/06 06:37:08;;;;;;;102.15;30.90;;;;;;;0.00;96.25;99564.72;3466737;28;20121;-46
2021/01/06 06:38:51;;;;;;;106.32;31.63;;;;;;;0.00;96.16;99569.81;3468257;28;20053;-47
2021/01/06 06:40:53;;;;;;;110.07;32.13;;;;;;;-0.02;96.40;99571.41;3466447;28;20475;-48
2021/01/06 06:42:45;;;;;;;94.55;29.45;;;;;;;-0.01;96.29;99575.69;3464840;28;20495;-47
2021/01/06 06:44:31;;;;;;;104.78;32.22;;;;;;;-0.00;96.36;99568.94;3467305;28;20417;-48
2021/01/06 06:46:27;;;;;;;100.93;30.73;;;;;;;0.01;96.48;99566.50;3467468;28;20084;-47
2021/01/06 06:48:25;;;;;;;92.78;30.05;;;;;;;0.02;96.40;99572.47;3466687;28;20120;-47
2021/01/06 06:50:31;;;;;;;104.75;31.40;;;;;;;0.02;96.55;99563.13;3466386;28;20430;-47
2021/01/06 06:52:19;;;;;;;87.90;28.33;;;;;;;-0.02;96.18;99556.13;3468634;28;20060;-47
2021/01/06 06:54:09;;;;;;;97.70;31.08;;;;;;;0.04;96.28;99566.63;3468333;28;20080;-48
2021/01/06 06:56:01;;;;;;;91.40;30.70;;;;;;;0.06;96.14;99570.94;3466364;28;20145;-47
2021/01/06 06:57:52;;;;;;;91.78;28.20;;;;;;;0.06;96.32;99576.91;3467207;28;20054;-48
2021/01/06 06:59:43;;;;;;;98.80;30.55;;;;;;;0.07;96.32;99565.94;3467133;28;20053;-48
2021/01/06 07:01:31;;;;;;;98.88;31.58;;;;;;;0.09;96.43;99573.66;3466371;28;20096;-48
2021/01/06 07:03:14;;;;;;;98.68;30.42;;;;;;;0.08;96.33;99557.47;3466513;28;20061;-48
2021/01/06 07:04:59;;;;;;;98.18;32.03;;;;;;;0.09;96.35;99558.38;3467864;28;20407;-48
2021/01/06 07:06:41;;;;;;;103.63;31.92;;;;;;;0.10;96.38;99561.00;3467219;28;20061;-46
2021/01/06 07:08:28;;;;;;;92.57;29.15;;;;;;;0.11;96.44;99561.88;3468233;28;20058;-47
2021/01/06 07:10:19;;;;;;;91.00;29.15;;;;;;;0.10;96.15;99565.22;3467513;28;20049;-47
2021/01/06 07:12:05;;;;;;;92.35;28.00;;;;;;;0.11;96.56;99572.06;3466211;28;20135;-48
2021/01/06 07:13:54;;;;;;;88.13;30.13;;;;;;;0.10;96.34;99563.56;3467658;28;20054;-47
2021/01/06 07:15:42;;;;;;;86.93;27.75;;;;;;;0.11;96.53;99567.84;3467952;28;20088;-48
2021/01/06 07:17:32;;;;;;;85.72;27.80;;;;;;;0.11;96.34;99564.44;3466272;28;20156;-47
2021/01/06 07:19:20;;;;;;;86.38;28.08;;;;;;;0.11;96.52;99566.97;3467546;28;20080;-47
2021/01/06 07:21:16;;;;;;;101.47;29.85;;;;;;;0.11;96.24;99564.44;3467801;28;20057;-47
2021/01/06 07:23:10;;;;;;;92.22;28.83;;;;;;;0.11;96.20;99560.19;3466213;28;20053;-47
2021/01/06 07:24:54;;;;;;;87.80;29.13;;;;;;;0.14;96.14;99572.25;3466218;28;20053;-47
2021/01/06 07:26:41;;;;;;;94.07;28.90;;;;;;;0.14;96.29;99557.81;3467929;28;20049;-46
2021/01/06 07:28:23;;;;;;;101.78;30.83;;;;;;;0.15;96.14;99566.34;3466052;28;20080;-47
2021/01/06 07:30:11;;;;;;;102.82;31.30;;;;;;;0.16;96.49;99565.56;3466509;28;20053;-46
2021/01/06 07:31:58;;;;;;;98.00;31.48;;;;;;;0.17;96.46;99572.38;3467207;28;20045;-47
2021/01/06 07:33:43;;;;;;;86.32;28.92;;;;;;;0.17;96.25;99569.84;3466246;28;20485;-48
2021/01/06 07:35:28;;;;;;;97.25;28.55;;;;;;;0.17;96.21;99574.94;3469916;28;20068;-47
2021/01/06 07:37:29;;;;;;;90.13;30.42;;;;;;;0.18;96.52;99576.72;3469430;28;20050;-47
2021/01/06 07:39:19;;;;;;;89.55;29.08;;;;;;;0.16;96.33;99571.50;3468455;28;20107;-48
2021/01/06 07:41:01;;;;;;;96.65;28.55;;;;;;;0.16;96.28;99571.50;3468447;28;20510;-47
2021/01/06 07:42:45;;;;;;;92.07;31.70;;;;;;;0.17;96.51;99574.94;3468201;28;20049;-47
2021/01/06 07:44:28;;;;;;;;;;;;;;;0.15;96.25;99572.31;3469086;28;20057;-47
2021/01/06 07:46:15;;;;;;;94.72;28.52;;;;;;;0.17;96.21;99572.38;3470397;28;19916;-47
2021/01/06 07:48:16;;;;;;;89.32;27.58;;;;;;;0.17;96.24;99568.19;3469688;28;20130;-50
2021/01/06 07:50:01;;;;;;;96.80;29.77;;;;;;;0.18;96.44;99577.56;3445356;28;20056;-47
2021/01/06 07:51:56;;;;;;;70.55;25.73;;;;;;;0.18;96.39;99577.56;3469114;28;20514;-47
2021/01/06 07:53:40;;;;;;;;;;;;;;;0.19;96.27;99581.03;3470999;28;20049;-47
2021/01/06 07:55:29;;;;;;;90.28;26.23;;;;;;;0.20;96.25;99585.31;3468454;28;20081;-48
2021/01/06 07:57:17;;;;;;;80.57;26.63;;;;;;;0.22;96.34;99586.25;3468419;28;20431;-48
2021/01/06 07:59:01;;;;;;;96.25;26.77;;;;;;;0.23;96.47;99582.94;3469925;28;20060;-48
2021/01/06 08:00:52;;;;;;;81.90;28.17;;;;;;;0.23;96.35;99582.94;3468059;28;20053;-47
2021/01/06 08:02:40;;;;;;;87.40;29.50;;;;;;;0.23;96.22;99583.81;3468042;28;20449;-47
2021/01/06 08:04:30;;;;;;;83.20;26.85;;;;;;;0.22;96.50;99587.16;3469011;28;20053;-47
2021/01/06 08:06:12;;;;;;;82.68;27.05;;;;;;;0.23;96.46;99586.34;3468275;28;20680;-47
2021/01/06 08:08:10;;;;;;;81.75;27.85;;;;;;;0.22;96.48;99586.25;3468077;28;20050;-47
2021/01/06 08:09:53;;;;;;;75.13;24.75;;;;;;;0.23;96.48;99588.03;3456463;28;20534;-47
2021/01/06 08:11:46;;;;;;;74.47;26.02;;;;;;;0.23;96.01;99586.34;3466435;28;20048;-47
2021/01/06 08:13:30;;;;;;;76.40;24.77;;;;;;;0.23;96.18;99586.34;3467887;28;20076;-47